Create Custom Reports and Graphics: Custom Report

Latest Observations

Map

10 Minute Data

Latest Observations

Map

10 Minute Data

Latest Observation

65 Stations

10 Minute Data
as of 5/24/22 5:15 AM PDT
Station Date Time Temp (°F) RH (%) Dew Pt (°F) Wind Spd (mph) Wind Dir (°) Wind Gust (mph) Wind Gst Dir (°) Latest Rain (In) Soil Moist (%) Soil Temp (°F) Daily Rain (In) Daily Min Temp (°F) Daily Max Temp (°F) Daily Max Wind (mph)
Hobart Mills 12/28/21 1450 24.4 84 20.1 2.4 SW | 216 7.0 SW | 235 0.00 30.9 37.1 0.57 20.2 38.1 29.4
West Incline Village 5/24/22 0510 46.8   3.4 43   2 25.5   4.2 2.4   0.6 NNE | 25 2.9   1.2 NNE | 19 0.00 29.3   0.1 52.5   0.9 0.00 46.4   3.2 51.6   5.0 3.7   0.4
Incline Village (Fairview Blvd) 5/24/22 0510 46.3   0.9 51   18 29.0   9.6 0.0   0.3 N | 0 0.0   2.4 ENE | 66 0.00 25.2   0.3 52.8   0.9 0.00 46.1   0.8 52.7   3.7 6.6   2.2
Incline Village (Diamond Peak) 5/24/22 0510 47.4   2.1 40   4 24.1   4.2 0.0   6.0 N | 0 0.0   7.7 SSE | 156 0.00 - 34.6   0.0 0.00 46.6   1.7 52.1   4.1 9.3   1.6
Incline Village (Mill Creek) 5/24/22 0510 45.0   2.6 50   15 27.6   6.4 0.0   0.9 N | 0 0.0   3.8 E | 83 0.00 8.7   0.1 50.6   0.9 0.00 44.8   0.4 53.1   2.6 5.1   0.9
Incline Village (Lakeshore Blvd) 5/24/22 0510 39.2   0.9 67   4 29.1   2.5 0.0   0.1 NE | 53 1.1   0.5 NE | 54 0.00 - - 0.00 39.2   1.2 43.9   1.2 4.1   0.1
Glenbrook 5/24/22 0510 41.4   1.6 54   3 26.1   2.9 0.7   0.4 ESE | 122 1.9   0.4 SE | 128 0.00 39.3   0.1 47.7   0.5 0.00 41.2   1.6 48.1   5.1 3.1   11.3
Zephyr Cove 12/28/21 1620 - 100   6 58.3   39.3 0.4   0.5 WNW | 299 2.0   2.5 W | 279 0.00 13.6   0.3 36.7   0.1 0.01 20.0   0.3 23.7   0.0 12.9   0.0
Kingsbury Grade 5/24/22 0510 42.4   4.5 46   11 23.3   2.3 0.5   4.0 SE | 126 2.1   7.1 ENE | 57 0.00 4.9   0.0 56.8   0.9 0.00 41.0   1.3 50.4   0.8 6.8   2.4
South Daggett Pass (Ridge) 12/31/21 2350 11.1   12.3 76   3 5.1   12.9 5.9   4.8 SE | 133 10.2   19.5 SSE | 153 0.00 9.8   0.0 36.8   0.1 0.00 11.0   6.9 26.6   0.2 36.1   2.2
Peavine 5/24/22 0510 44.4   2.5 52   6 27.9   5.3 6.2   0.2 SSW | 206 7.6   0.5 SW | 215 0.00 17.6   0.5 51.4   0.4 0.00 43.6   2.0 55.1   6.9 7.6   0.9
Northwest Reno 5/24/22 0510 53.4   2.0 37   4 27.5   4.6 2.7   0.0 N | 357 4.6   0.6 NNE | 17 0.00 29.8   0.1 67.2   1.5 0.00 52.6   1.5 61.4   3.7 15.6   1.5
West Verdi 5/24/22 0510 44.2   1.5 55   4 29.1   3.1 1.2   1.2 N | 355 3.4   2.6 NW | 319 0.00 17.7   0.1 66.6   0.8 0.00 44.0   1.6 59.1   7.9 10.7   5.5
West Reno (Mogul) 5/24/22 0510 51.7   4.1 39   2 27.4   2.8 2.3   0.2 NW | 304 8.2   0.1 NW | 308 0.00 35.9   0.6 63.8   0.7 0.00 49.3   2.8 61.0   4.7 11.3   3.1
Caughlin (Hunter Lake Trail) 5/24/22 0510 55.2   4.4 33   1 26.5   4.5 0.0   0.1 N | 0 0.0   3.0 SSE | 154 0.00 17.0   0.0 63.0   0.9 0.00 52.8   4.1 60.0   5.7 10.9   0.9
ArrowCreek 5/24/22 0510 48.5   2.8 43   11 27.0   4.6 3.9   2.8 S | 186 5.7   3.1 S | 180 0.00 14.1   0.2 58.3   0.8 0.00 47.6   1.5 59.0   4.1 9.7   3.2
Virginia Highlands 5/24/22 0510 50.8   1.0 38   7 26.2   6.0 4.9   3.5 W | 273 7.1   3.7 W | 269 0.00 6.4   0.0 61.0   0.6 0.00 50.4   2.5 56.4   3.4 11.2   5.0
Mt Rose Highway 5/24/22 0510 47.1   3.6 39   0 23.2   3.2 3.1   0.4 WSW | 237 5.6   0.0 WSW | 237 0.00 17.3   0.6 52.7   0.8 0.00 46.5   3.5 52.3   5.4 8.1   0.7
New Washoe City 5/24/22 0510 49.0   4.8 41   0 26.1   4.4 1.8   2.8 NNE | 25 3.5   3.7 NNE | 23 0.00 4.2   0.0 63.0   0.7 0.00 48.4   5.8 55.0   3.3 12.5   2.0
Franktown Creek 5/24/22 0510 44.0   2.0 57   4 29.9   3.5 0.4   0.2 SSW | 208 2.6   0.4 SSE | 158 0.00 8.9   0.1 61.4   0.8 0.00 43.4   2.2 51.7   3.9 6.0   1.9
Musgrove Creek 5/24/22 0510 51.9   3.5 34   0 24.6   2.9 1.9   0.3 SSW | 212 2.7   0.1 SSW | 208 0.00 35.3   0.2 55.3   0.4 0.00 51.1   3.7 57.6   5.2 3.6   0.6
Carson City (Voltaire Canyon) 5/24/22 0510 53.7   0.9 34   5 25.8   3.0 0.4   6.7 NW | 315 3.0   8.2 NNW | 334 0.00 2.4   0.0 65.5   0.8 0.00 53.5   2.8 63.5   4.5 18.6   5.5
Genoa 5/24/22 0510 48.2   2.3 41   3 25.8   0.2 0.0   0.0 N | 0 0.0   0.0 WNW | 297 0.00 8.6   0.1 64.4   1.0 0.00 46.0   0.5 55.6   1.8 4.1   2.2
South Genoa (Walleys Hot Springs) 5/24/22 0510 45.2   2.3 57   24 30.9   6.7 0.0   0.0 N | 0 0.0   0.0 S | 179 0.00 3.8   0.1 65.8   0.6 0.00 42.7   0.4 55.0   0.4 7.7   3.9
SW Gardnerville (HWY 88) 5/24/22 0510 39.1   2.4 71   6 30.5   0.0 0.1   2.5 ENE | 72 1.2   2.1 ENE | 70 0.00 2.8   0.0 61.5   1.0 0.00 38.8   1.7 50.9   1.4 8.2   0.4
North Topaz Lake 5/24/22 0510 53.9   2.8 27   0 20.4   2.4 0.6   1.0 WNW | 296 2.2   1.4 WNW | 294 0.00 - - 0.00 52.8   3.1 60.7   3.9 13.5   4.8
Reid Gardner Sub 5/24/22 0510 64.1   6.5 13   4 12.5   11.4 3.2   5.3 WSW | 257 4.5   15.4 WSW | 250 0.00 - 76.0   0.2 0.00 60.7   9.7 72.1   5.0 9.2   17.3
Corn Creek 5/24/22 0510 69.1   1.7 11   5 13.3   7.0 6.5   4.7 WNW | 289 8.9   7.2 WNW | 285 0.00 3.4   0.0 77.3   0.8 0.02 66.7   0.2 72.0   4.4 13.8   9.1
Lucky Strike 5/24/22 0510 60.8   1.5 15   3 12.8   2.7 7.4   3.9 WNW | 286 11.4   8.3 W | 281 0.00 4.0   0.1 68.7   0.9 0.00 60.2   1.2 65.2   1.8 19.4   4.8
Lower Angel Peak 5/24/22 0510 51.0   3.6 20   2 11.6   0.4 5.6   2.2 WSW | 241 9.8   2.9 SW | 236 0.00 2.7   0.0 64.4   0.4 0.00 50.5   3.8 55.3   4.2 9.8   0.1
Angel Peak 5/24/22 0510 45.0   0.2 24   0 10.2   0.3 4.0   0.2 NNW | 339 8.4   2.2 NNW | 339 0.00 - 32.0   0.0 0.00 44.9   0.6 48.8   0.8 9.8   14.8
Upper Kyle Canyon 5/24/22 0510 48.3   1.4 22   6 11.4   6.7 3.1   0.2 NNW | 346 5.0   1.4 NNW | 344 0.00 12.2   0.0 67.1   0.4 0.00 47.0   0.7 51.3   3.9 8.1   9.0
Mt Charleston 5/24/22 0510 45.7   3.5 28   3 14.8   5.1 0.8   0.4 W | 280 3.2   1.0 WNW | 292 0.00 0.0   0.0 41.2   4.6 0.00 45.5   2.8 51.4   5.0 6.2   9.3
Mid Kyle Canyon 5/24/22 0510 53.4   3.2 19   8 12.3   5.3 10.8   3.4 NW | 312 15.3   4.8 NW | 314 0.00 4.7   0.1 63.8   0.4 0.00 52.5   3.5 56.5   4.7 16.5   2.7
Blue Diamond 5/24/22 0510 51.4   16.1 26   12 17.3   1.3 3.4   1.5 WNW | 289 5.3   3.2 WNW | 303 0.00 0.7   0.1 75.4   0.5 0.00 51.1   15.0 60.9   14.5 9.8   0.1
Artesian Sub 5/24/22 0510 70.4   4.1 12   2 15.4   7.2 0.2   3.5 S | 169 1.5   7.2 SSE | 148 0.00 7.8   0.0 81.7   0.7 0.00 70.1   4.0 76.0   6.1 10.3   6.7
North Henderson 5/24/22 0510 71.5   2.2 12   4 15.4   8.0 1.1   6.7 ESE | 115 2.6   9.4 ESE | 121 0.00 - - 0.00 71.3   2.0 77.6   5.5 17.0   2.5
Sandy Valley 5/24/22 0510 67.1   1.7 15   5 17.6   5.2 4.0   0.7 WNW | 285 5.5   0.6 W | 267 0.00 6.1   0.0 77.2   0.1 0.00 65.4   2.8 76.2   1.4 11.2   1.2
Searchlight 5/24/22 0510 63.7   2.2 15   2 14.5   4.1 1.5   2.0 S | 180 3.2   3.1 SSW | 212 0.00 3.4   0.0 77.6   0.3 0.00 59.3   5.0 68.1   0.0 13.7   1.7
Laughlin 5/24/22 0510 73.1   3.0 18   3 27.4   6.3 3.2   0.6 SSW | 206 6.5   0.6 SSW | 200 0.00 3.9   0.1 86.1   0.3 0.00 72.7   2.6 84.1   0.2 14.2   6.6
South Elko 5/24/22 0510 44.1 42 22.7 0.2 SW | 224 1.5 SW | 229 0.00 5.4 58.1 0.00 44.0 51.0 8.4
Virginia City 5/24/22 0510 53.1   4.5 30   1 22.5   3.3 1.0   0.5 NNW | 335 2.5   1.7 N | 0 0.00 5.0   0.1 63.6   1.5 0.00 52.9   4.4 58.5   5.9 25.2   19.1
Lamoille 5/24/22 0510 44.0 43 23.0 3.8 SW | 216 4.1 SW | 215 0.00 3.9 54.9 0.00 41.2 46.8 7.5
NE Elko 5/24/22 0510 33.2 67 23.6 0.3 NW | 316 1.2 NW | 316 0.00 5.2 59.3 0.00 32.9 38.8 6.7
Six Mile Canyon 5/24/22 0510 52.6   3.1 30   1 21.8   2.0 1.4   0.2 NNE | 24 3.4   0.7 N | 11 0.00 5.9   0.1 67.7   1.3 0.00 52.1   3.7 64.7   7.3 17.4   5.8
North Elko 5/24/22 0510 42.5 46 23.0 0.6 ENE | 70 1.6 ENE | 77 0.00 19.2 59.0 0.00 42.2 51.3 11.4
Winnemucca 5/24/22 0510 45.7   2.9 42   1 23.9   2.4 1.6   2.0 E | 98 2.5   3.5 E | 96 0.00 5.4   0.1 63.6   1.5 0.00 44.9   2.6 51.1   2.4 8.6   3.7
Max     73.1 71 30.9 10.8 - 15.3 - 0.00 39.3 86.1 0.02 72.7 84.1 25.2
Avg     50.9 36 22.3 2.2 - 3.9 - 0.00 11.3 61.7 - - - -
Min     33.2 11 10.2 0.0 - 0.0 - 0.00 0.0 32.0 0.00 32.9 38.8 3.1

Latest Observation

65 Stations

Daily Data
as of 5/24/22 5:15 AM PDT
Station Date Daily Max Temp (°F) Daily Min Temp (°F) Max RH (%) Min RH (%) Wind Spd (mph) Wind Dir (°) Daily Max Wind (mph) Max Wind Dir (°) Time of Max Wind Daily Rain (In) Weekly Precip (In) Seasonal Rainfall (In) Soil Moist (%) Fuel Temp (°F) Fuel Moisture (%) MinBV Day (V)
Hobart Mills 12/22/21 39.2   8.4 29.8   13.2 100   8 39   24 1.9   0.6 SW | 215 26.3   6.5 SW | 222 2219 0.90 1.97 19.10 35.8   5.9 - - 10.8   0.2
West Incline Village 5/23/22 64.1   2.7 41.6   1.9 48   20 24   2 0.0   2.6 N | 0 13.5   0.4 SW | 220 1127 0.00 0.00 2.92 29.3   0.1 - - 12.7   0.0
Incline Village (Fairview Blvd) 5/23/22 65.7   2.7 43.5   3.9 48   20 20   4 1.5   0.2 W | 261 10.3   0.2 S | 179 1056 0.00 0.00 0.00 25.3   0.3 -13.5   0.1 - 12.3   0.0
Incline Village (Diamond Peak) 5/23/22 62.4   1.6 43.8   3.8 40   23 21   4 1.9   2.8 ENE | 76 14.9   3.0 E | 92 1100 0.00 0.00 14.24 - - - 12.7   0.0
Incline Village (Mill Creek) 5/23/22 66.5   2.5 42.6   3.4 59   14 19   4 1.3   0.1 W | 280 11.3   0.4 NNW | 344 1053 0.00 0.00 0.00 8.8   0.1 -8.5   0.1 - 12.5   0.0
Incline Village (Lakeshore Blvd) 5/23/22 63.7   1.2 36.6   2.0 76   2 25   5 0.6   0.1 SSW | 213 6.1   1.0 SW | 227 1338 0.00 0.00 2.46 - - - 12.4   0.0
Glenbrook 5/23/22 63.7   0.1 38.2   2.2 68   14 24   0 2.2   0.1 SW | 221 17.4   4.9 ESE | 122 0821 0.00 0.00 1.60 39.4   0.0 - - 12.6   0.0
Zephyr Cove 12/26/21 22.0   8.1 15.1   5.8 95   2 78   6 1.4   0.1 ESE | 123 17.0   1.9 NE | 55 0140 0.00 1.07 12.84 14.1   0.3 - - 11.0   0.1
Kingsbury Grade 5/23/22 67.1   1.8 42.3   6.9 47   27 19   2 3.1   1.0 E | 94 16.8   1.0 ENE | 78 0958 0.00 0.00 3.34 4.9   0.0 - - 12.6   0.0
South Daggett Pass (Ridge) 12/30/21 26.9   2.6 17.8   1.4 98   2 71   24 6.1   6.1 WNW | 284 38.4   38.4 NW | 317 1649 0.00 0.00 8.25 9.8   0.1 - - 11.4   0.2
Peavine 5/23/22 68.1   1.3 41.1   1.1 48   2 15   3 4.6   0.9 SW | 231 20.1   4.7 NNE | 17 1806 0.00 0.00 0.39 17.9   0.4 - - 12.6   0.0
Northwest Reno 5/23/22 72.7   1.5 48.4   4.6 39   5 12   3 7.7   2.0 NNE | 18 21.7   9.3 N | 350 2249 0.00 0.00 0.65 29.6   0.1 - - 12.6   0.0
West Verdi 5/23/22 73.9   1.1 41.0   0.6 57   5 16   1 2.9   1.1 NE | 39 15.2   4.7 NW | 312 1849 0.00 0.00 4.49 17.7   0.0 - - 12.6   0.0
West Reno (Mogul) 5/23/22 72.3   1.2 44.5   0.4 57   4 13   1 4.5   0.4 N | 6 17.8   2.7 ENE | 62 1129 0.00 0.00 4.35 36.2   0.6 - - 12.6   0.0
Caughlin (Hunter Lake Trail) 5/23/22 72.8   1.6 48.4   3.0 37   6 13   3 4.4   0.4 W | 280 17.5   3.6 NE | 36 1259 0.00 0.01 30.25 16.8   0.0 - - 12.6   0.0
ArrowCreek 5/23/22 72.4   1.3 45.6   2.6 42   5 15   2 5.8   0.8 NNW | 342 20.4   3.9 NNW | 339 1638 0.00 0.00 2.17 14.2   0.2 - - 12.5   0.0
Virginia Highlands 5/23/22 69.6   2.0 47.1   1.8 36   2 12   7 3.8   0.5 N | 10 15.0   4.0 N | 2 1554 0.00 0.00 0.65 6.4   0.0 - - 12.7   0.0
Mt Rose Highway 5/23/22 64.4   1.5 42.2   0.9 42   2 21   2 2.1   0.1 NNW | 327 12.7   0.1 ENE | 69 1350 0.00 0.00 23.50 17.5   0.6 - - 12.6   0.0
New Washoe City 5/23/22 72.9   1.9 41.2   0.0 48   2 14   4 5.3   0.5 NNE | 23 17.4   1.1 W | 261 1416 0.00 0.00 0.63 4.2   0.0 - - 12.6   0.0
Franktown Creek 5/23/22 72.8   1.4 40.2   0.5 62   1 15   3 1.9   0.5 W | 271 10.1   14.3 SSE | 157 1517 0.00 0.00 3.20 8.9   0.0 - - 12.7   0.0
Musgrove Creek 5/23/22 69.3   0.4 46.6   2.4 48   3 19   0 2.0   0.1 WNW | 290 12.0   3.5 ENE | 58 1527 0.00 0.00 3.85 35.3   0.2 - - 12.6   0.0
Carson City (Voltaire Canyon) 5/23/22 73.8   1.3 48.9   0.8 42   2 15   1 6.7   1.2 N | 351 23.0   0.6 NNW | 329 2026 0.00 0.00 0.22 2.4   0.0 - - 12.7   0.0
Genoa 5/23/22 75.6   0.0 44.6   2.3 51   8 17   2 1.2   0.5 NNW | 345 8.9   13.7 W | 269 2105 0.00 0.00 2.65 8.6   0.1 - - 12.5   0.0
South Genoa (Walleys Hot Springs) 5/23/22 75.4   1.5 40.2   0.8 88   0 16   0 2.8   2.4 NNE | 32 23.7   1.9 NNW | 334 2113 0.00 0.00 1.87 4.0   0.1 - - 12.6   0.0
SW Gardnerville (HWY 88) 5/23/22 74.8   2.4 38.5   1.5 78   9 16   2 3.0   3.1 NW | 320 12.7   8.8 NE | 44 2126 0.00 0.00 0.77 2.9   0.0 - - 12.5   0.0
North Topaz Lake 5/23/22 71.8   0.3 48.6   1.4 33   2 17   1 4.6   0.1 ENE | 68 18.8   10.6 E | 96 1638 0.00 0.00 0.76 - - - 12.7   0.0
Reid Gardner Sub 5/23/22 90.9   1.7 65.9   17.9 21   10 8   1 6.5   3.4 N | 357 26.4   8.1 N | 0 0221 0.00 0.00 - - 80.5   3.1 1   0 12.8   0.0
Corn Creek 5/23/22 85.3   0.7 66.5   7.4 18   4 9   2 10.6   5.6 NW | 310 25.5   1.1 N | 2 1604 5.99 - 47.78 3.4   0.0 - - 12.8   0.0
Lucky Strike 5/23/22 74.5   0.2 56.8   0.0 23   7 12   2 10.2   4.4 NW | 308 29.7   10.7 N | 354 1255 0.00 0.00 0.26 4.0   0.0 70.1   1.8 1   0 12.7   0.0
Lower Angel Peak 5/23/22 69.8   0.7 46.8   1.4 24   1 13   2 5.0   0.4 WNW | 301 24.5   8.0 NNE | 18 1656 0.00 0.00 - 2.7   0.0 65.7   0.2 2   0 12.8   0.0
Angel Peak 5/23/22 59.4   0.8 43.2   1.4 39   12 19   3 5.4   0.2 NW | 321 33.0   8.8 WNW | 285 1805 0.00 0.00 1.61 - - - 12.7   0.0
Upper Kyle Canyon 5/23/22 63.0   2.1 47.7   5.2 31   6 16   2 5.0   0.6 ENE | 65 21.4   0.7 SE | 125 1313 0.00 0.00 0.62 12.2   0.0 62.7   0.2 3   0 12.8   0.1
Mt Charleston 5/23/22 63.9   1.7 46.9   3.0 37   6 17   3 2.8   0.5 WSW | 258 18.9   4.5 E | 90 1441 0.00 0.00 2.10 0.0   0.0 - - 12.7   0.0
Mid Kyle Canyon 5/23/22 70.6   0.1 48.1   1.8 30   6 12   0 7.0   0.3 NW | 306 24.6   4.4 ESE | 105 1508 0.00 0.00 - 4.7   0.1 - - 12.9   0.0
Blue Diamond 5/23/22 82.6   2.2 57.8   9.2 23   2 10   2 4.2   2.4 SE | 128 18.1   3.9 ESE | 116 1507 0.00 0.00 - 0.7   0.0 77.0   0.1 2   0 12.8   0.1
Artesian Sub 5/23/22 90.3   4.9 72.7   9.5 24   0 9   2 3.6   0.9 NNE | 30 17.0   1.5 NNW | 347 0317 0.00 0.00 0.09 7.8   0.0 86.6   1.9 0   0 12.8   0.0
North Henderson 5/23/22 90.2   5.0 72.4   6.9 22   1 9   2 5.6   1.5 NE | 48 18.9   1.0 NNE | 30 1004 0.00 0.00 2.92 - - - 12.7   0.1
Sandy Valley 5/23/22 88.0   0.3 62.1   3.3 24   6 9   0 6.7   2.7 N | 3 23.0   3.7 NNW | 332 1549 0.00 0.00 0.05 6.1   0.0 81.2   1.7 1   0 12.7   0.0
Searchlight 5/23/22 82.9   1.4 62.6   8.2 23   5 10   3 9.6   3.2 N | 354 27.7   0.2 N | 354 0852 0.00 0.00 0.20 3.4   0.0 75.8   0.7 2   0 12.8   0.0
Laughlin 5/23/22 96.5   0.2 75.3   2.2 23   7 8   4 9.2   4.1 N | 349 28.8   7.9 N | 351 1159 0.00 0.00 0.06 3.8   0.0 - - 12.7   0.0
South Elko 5/23/22 - 49.3 - 18 7.6 NNE | 16 24.7 WNW | 303 1549 1.03 1.03 - 5.3 59.4 5 12.6
Virginia City 5/23/22 69.4   2.4 46.6   0.8 33   1 12   5 3.7   1.4 N | 5 18.5   3.5 N | 1 0039 0.00 0.00 0.00 5.0   0.1 63.2   0.5 - 12.8   0.0
Lamoille 5/23/22 - 34.0 52 14 5.5 E | 97 24.0 NW | 319 1736 0.00 0.00 0.00 3.8 62.1 5 12.7
NE Elko 5/23/22 66.8 32.0 50 11 5.5 NW | 313 27.3 WNW | 288 1718 0.00 0.00 0.00 5.2 65.1 3 12.8
Six Mile Canyon 5/23/22 76.3   0.2 47.8   2.4 33   2 11   3 4.5   0.3 NNE | 25 20.9   4.0 NW | 322 0035 0.00 0.00 0.00 5.9   0.2 70.4   3.4 - 12.7   0.0
North Elko 5/23/22 64.6 32.0 37 13 7.2 NNW | 340 29.4 W | 281 1434 0.00 0.00 0.00 18.9 - - 12.8
Winnemucca 5/23/22 71.3   6.3 40.6   5.2 46   4 15   2 5.5   1.0 N | 7 18.0   5.1 W | 276 1520 0.00 0.00 0.00 5.4   0.0 63.6   5.3 2   0 12.7   0.1
Max   96.5 75.3 88 25 10.6 - 33.0 - - 5.99 - 47.78 39.4 86.6 5 12.9
Avg   - - - - 4.6 - - - - - - - 11.3 60.1 2 -
Min   59.4 32.0 18 8 0.0 - 6.1 - - 0.00 - 0.00 0.0 -13.5 0 12.3

Fosberg 6Hr Max

Map

Hourly Data

Latest Observations

Map

Hourly Data